Clarks, Texas
Current Conditions -  °F | °C
As of 2:55 AM on Saturday 22 Nov 2014 (Local Time) from KPKV Reporting Station
Scattered Clouds Scattered Clouds  
Wind Chill: 63°   Ceiling: Unl
Heat Index: 63°   Visibility: 7mi
Dew Point: 61°   Wind: 10mph
Humidity: 95%   Direction: 120°ESE
Pressure: 30.04"   Gusts: NA
Location:  28.5342°N, 96.663°W
Report Text: KPKV 220855Z AUTO 12009KT 7SM SCT040 SCT095 17/16 A3004 RMK AO2 T01700162
Loading
Personal Weather Stations






























Interactive Weather Map New forecast layout! Learn more

10-Day Weather Forecast

Advertisements
Track Severe Weather on mobile